sensor_id;sensor_type;location;lat;lon;timestamp;temperature;humidity
66337;SHT30;53139;45.576;5.304;2022-09-03T00:02:37;18.81;92.99
66337;SHT30;53139;45.576;5.304;2022-09-03T00:05:49;18.87;91.68
66337;SHT30;53139;45.576;5.304;2022-09-03T00:09:02;18.81;91.95
66337;SHT30;53139;45.576;5.304;2022-09-03T00:12:28;18.83;91.69
66337;SHT30;53139;45.576;5.304;2022-09-03T00:15:33;18.81;91.34
66337;SHT30;53139;45.576;5.304;2022-09-03T00:18:42;18.50;93.43
66337;SHT30;53139;45.576;5.304;2022-09-03T00:21:51;18.70;91.91
66337;SHT30;53139;45.576;5.304;2022-09-03T00:24:55;18.77;91.88
66337;SHT30;53139;45.576;5.304;2022-09-03T00:28:02;18.70;92.37
66337;SHT30;53139;45.576;5.304;2022-09-03T00:31:17;18.74;91.91
66337;SHT30;53139;45.576;5.304;2022-09-03T00:34:31;18.47;94.11
66337;SHT30;53139;45.576;5.304;2022-09-03T00:37:33;18.54;93.40
66337;SHT30;53139;45.576;5.304;2022-09-03T00:44:18;18.42;93.97
66337;SHT30;53139;45.576;5.304;2022-09-03T00:50:59;18.35;93.19
66337;SHT30;53139;45.576;5.304;2022-09-03T01:00:30;18.36;93.75
66337;SHT30;53139;45.576;5.304;2022-09-03T01:03:42;18.35;94.53
66337;SHT30;53139;45.576;5.304;2022-09-03T01:14:08;18.16;95.11
66337;SHT30;53139;45.576;5.304;2022-09-03T01:20:51;18.15;95.32
66337;SHT30;53139;45.576;5.304;2022-09-03T01:30:26;18.26;94.49
66337;SHT30;53139;45.576;5.304;2022-09-03T01:33:28;18.15;94.54
66337;SHT30;53139;45.576;5.304;2022-09-03T01:46:38;17.94;96.28
66337;SHT30;53139;45.576;5.304;2022-09-03T01:50:06;17.92;96.47
66337;SHT30;53139;45.576;5.304;2022-09-03T02:03:06;18.12;92.82
66337;SHT30;53139;45.576;5.304;2022-09-03T02:06:09;17.91;93.60
66337;SHT30;53139;45.576;5.304;2022-09-03T02:09:10;18.00;92.56
66337;SHT30;53139;45.576;5.304;2022-09-03T02:12:14;17.84;93.80
66337;SHT30;53139;45.576;5.304;2022-09-03T02:15:21;17.73;93.92
66337;SHT30;53139;45.576;5.304;2022-09-03T02:18:29;17.63;94.04
66337;SHT30;53139;45.576;5.304;2022-09-03T02:21:34;17.54;96.86
66337;SHT30;53139;45.576;5.304;2022-09-03T02:24:35;17.51;95.59
66337;SHT30;53139;45.576;5.304;2022-09-03T02:27:37;17.63;93.83
66337;SHT30;53139;45.576;5.304;2022-09-03T02:30:38;17.49;94.31
66337;SHT30;53139;45.576;5.304;2022-09-03T02:33:42;17.30;96.28
66337;SHT30;53139;45.576;5.304;2022-09-03T02:36:45;17.11;96.35
66337;SHT30;53139;45.576;5.304;2022-09-03T02:39:46;17.35;95.46
66337;SHT30;53139;45.576;5.304;2022-09-03T02:42:48;17.47;93.92
66337;SHT30;53139;45.576;5.304;2022-09-03T02:45:53;17.35;93.56
66337;SHT30;53139;45.576;5.304;2022-09-03T02:48:55;17.19;93.80
66337;SHT30;53139;45.576;5.304;2022-09-03T02:52:02;17.09;96.34
66337;SHT30;53139;45.576;5.304;2022-09-03T02:55:08;17.22;96.36
66337;SHT30;53139;45.576;5.304;2022-09-03T02:58:09;17.19;96.67
66337;SHT30;53139;45.576;5.304;2022-09-03T03:01:10;17.28;95.60
66337;SHT30;53139;45.576;5.304;2022-09-03T03:04:11;17.30;93.58
66337;SHT30;53139;45.576;5.304;2022-09-03T03:07:12;17.15;95.13
66337;SHT30;53139;45.576;5.304;2022-09-03T03:10:13;17.12;95.26
66337;SHT30;53139;45.576;5.304;2022-09-03T03:13:14;17.11;95.60
66337;SHT30;53139;45.576;5.304;2022-09-03T03:16:15;17.26;93.58
66337;SHT30;53139;45.576;5.304;2022-09-03T03:19:17;17.30;94.04
66337;SHT30;53139;45.576;5.304;2022-09-03T03:22:17;17.36;93.48
66337;SHT30;53139;45.576;5.304;2022-09-03T03:25:18;17.25;94.59
66337;SHT30;53139;45.576;5.304;2022-09-03T03:28:20;17.28;93.30
66337;SHT30;53139;45.576;5.304;2022-09-03T03:31:23;17.32;93.21
66337;SHT30;53139;45.576;5.304;2022-09-03T03:34:25;17.08;95.72
66337;SHT30;53139;45.576;5.304;2022-09-03T03:37:26;17.23;93.51
66337;SHT30;53139;45.576;5.304;2022-09-03T03:40:27;17.26;93.47
66337;SHT30;53139;45.576;5.304;2022-09-03T03:43:30;17.07;94.87
66337;SHT30;53139;45.576;5.304;2022-09-03T03:46:36;17.25;93.56
66337;SHT30;53139;45.576;5.304;2022-09-03T03:49:38;17.23;96.01
66337;SHT30;53139;45.576;5.304;2022-09-03T03:52:39;17.29;96.08
66337;SHT30;53139;45.576;5.304;2022-09-03T03:55:40;17.37;95.72
66337;SHT30;53139;45.576;5.304;2022-09-03T03:58:41;17.40;95.53
66337;SHT30;53139;45.576;5.304;2022-09-03T04:01:46;17.30;96.31
66337;SHT30;53139;45.576;5.304;2022-09-03T04:04:48;17.40;95.31
66337;SHT30;53139;45.576;5.304;2022-09-03T04:07:49;17.49;95.04
66337;SHT30;53139;45.576;5.304;2022-09-03T04:10:49;17.39;96.18
66337;SHT30;53139;45.576;5.304;2022-09-03T04:13:51;17.28;97.21
66337;SHT30;53139;45.576;5.304;2022-09-03T04:16:54;17.30;97.12
66337;SHT30;53139;45.576;5.304;2022-09-03T04:19:56;17.32;97.15
66337;SHT30;53139;45.576;5.304;2022-09-03T04:23:00;17.33;97.09
66337;SHT30;53139;45.576;5.304;2022-09-03T04:26:04;17.47;95.38
66337;SHT30;53139;45.576;5.304;2022-09-03T04:29:07;17.37;96.56
66337;SHT30;53139;45.576;5.304;2022-09-03T04:32:08;17.49;96.20
66337;SHT30;53139;45.576;5.304;2022-09-03T04:35:28;17.50;95.63
66337;SHT30;53139;45.576;5.304;2022-09-03T04:38:32;17.67;93.77
66337;SHT30;53139;45.576;5.304;2022-09-03T04:41:35;17.70;93.54
66337;SHT30;53139;45.576;5.304;2022-09-03T04:44:36;17.67;93.42
66337;SHT30;53139;45.576;5.304;2022-09-03T04:47:38;17.73;93.16
66337;SHT30;53139;45.576;5.304;2022-09-03T04:50:41;17.66;93.13
66337;SHT30;53139;45.576;5.304;2022-09-03T04:53:43;17.66;93.48
66337;SHT30;53139;45.576;5.304;2022-09-03T04:56:47;17.66;93.16
66337;SHT30;53139;45.576;5.304;2022-09-03T04:59:49;17.62;93.43
66337;SHT30;53139;45.576;5.304;2022-09-03T05:02:52;17.53;93.56
66337;SHT30;53139;45.576;5.304;2022-09-03T05:05:54;17.43;94.02
66337;SHT30;53139;45.576;5.304;2022-09-03T05:08:56;17.29;94.77
66337;SHT30;53139;45.576;5.304;2022-09-03T05:11:58;17.43;93.58
66337;SHT30;53139;45.576;5.304;2022-09-03T05:15:01;17.35;93.47
66337;SHT30;53139;45.576;5.304;2022-09-03T05:18:06;17.14;94.73
66337;SHT30;53139;45.576;5.304;2022-09-03T05:21:11;17.35;94.04
66337;SHT30;53139;45.576;5.304;2022-09-03T05:24:11;17.30;95.02
66337;SHT30;53139;45.576;5.304;2022-09-03T05:27:16;17.43;94.30
66337;SHT30;53139;45.576;5.304;2022-09-03T05:30:19;17.45;94.07
66337;SHT30;53139;45.576;5.304;2022-09-03T05:33:22;17.35;94.68
66337;SHT30;53139;45.576;5.304;2022-09-03T05:36:25;17.43;94.61
66337;SHT30;53139;45.576;5.304;2022-09-03T05:39:26;17.67;93.54
66337;SHT30;53139;45.576;5.304;2022-09-03T05:42:27;17.73;93.45
66337;SHT30;53139;45.576;5.304;2022-09-03T05:45:28;17.70;94.04
66337;SHT30;53139;45.576;5.304;2022-09-03T05:48:32;17.70;94.11
66337;SHT30;53139;45.576;5.304;2022-09-03T05:51:35;17.71;94.11
66337;SHT30;53139;45.576;5.304;2022-09-03T05:54:37;17.81;94.27
66337;SHT30;53139;45.576;5.304;2022-09-03T05:57:38;17.75;93.33
66337;SHT30;53139;45.576;5.304;2022-09-03T06:00:40;17.67;94.39
66337;SHT30;53139;45.576;5.304;2022-09-03T06:03:42;17.73;94.55
66337;SHT30;53139;45.576;5.304;2022-09-03T06:06:45;17.77;93.67
66337;SHT30;53139;45.576;5.304;2022-09-03T06:09:45;17.88;93.02
66337;SHT30;53139;45.576;5.304;2022-09-03T06:12:50;17.92;93.39
66337;SHT30;53139;45.576;5.304;2022-09-03T06:16:03;18.09;92.99
66337;SHT30;53139;45.576;5.304;2022-09-03T06:19:04;18.25;92.80
66337;SHT30;53139;45.576;5.304;2022-09-03T06:22:14;18.35;91.86
66337;SHT30;53139;45.576;5.304;2022-09-03T06:25:18;18.40;92.48
66337;SHT30;53139;45.576;5.304;2022-09-03T06:28:18;18.49;91.95
66337;SHT30;53139;45.576;5.304;2022-09-03T06:31:20;18.66;91.78
66337;SHT30;53139;45.576;5.304;2022-09-03T06:34:21;18.73;91.44
66337;SHT30;53139;45.576;5.304;2022-09-03T06:37:24;18.97;90.79
66337;SHT30;53139;45.576;5.304;2022-09-03T06:40:25;19.09;91.46
66337;SHT30;53139;45.576;5.304;2022-09-03T06:43:28;19.18;90.49
66337;SHT30;53139;45.576;5.304;2022-09-03T06:46:34;19.28;90.35
66337;SHT30;53139;45.576;5.304;2022-09-03T06:49:36;19.40;90.27
66337;SHT30;53139;45.576;5.304;2022-09-03T06:52:37;19.69;89.82
66337;SHT30;53139;45.576;5.304;2022-09-03T06:55:39;19.67;89.87
66337;SHT30;53139;45.576;5.304;2022-09-03T06:58:42;19.64;90.00
66337;SHT30;53139;45.576;5.304;2022-09-03T07:01:44;19.74;89.76
66337;SHT30;53139;45.576;5.304;2022-09-03T07:04:44;20.04;89.49
66337;SHT30;53139;45.576;5.304;2022-09-03T07:07:45;20.30;87.80
66337;SHT30;53139;45.576;5.304;2022-09-03T07:10:46;20.35;87.98
66337;SHT30;53139;45.576;5.304;2022-09-03T07:13:53;20.46;88.69
66337;SHT30;53139;45.576;5.304;2022-09-03T07:17:03;20.74;87.64
66337;SHT30;53139;45.576;5.304;2022-09-03T07:20:05;20.90;86.81
66337;SHT30;53139;45.576;5.304;2022-09-03T07:23:06;21.19;87.07
66337;SHT30;53139;45.576;5.304;2022-09-03T07:26:10;20.98;86.43
66337;SHT30;53139;45.576;5.304;2022-09-03T07:29:11;21.04;87.10
66337;SHT30;53139;45.576;5.304;2022-09-03T07:32:13;21.11;86.16
66337;SHT30;53139;45.576;5.304;2022-09-03T07:35:15;21.35;86.07
66337;SHT30;53139;45.576;5.304;2022-09-03T07:38:34;21.59;82.24
66337;SHT30;53139;45.576;5.304;2022-09-03T07:41:36;21.21;86.23
66337;SHT30;53139;45.576;5.304;2022-09-03T07:44:38;20.94;86.30
66337;SHT30;53139;45.576;5.304;2022-09-03T07:47:48;20.93;84.01
66337;SHT30;53139;45.576;5.304;2022-09-03T07:50:49;20.85;86.05
66337;SHT30;53139;45.576;5.304;2022-09-03T07:53:52;21.04;86.62
66337;SHT30;53139;45.576;5.304;2022-09-03T07:56:53;21.04;85.98
66337;SHT30;53139;45.576;5.304;2022-09-03T07:59:56;20.94;86.39
66337;SHT30;53139;45.576;5.304;2022-09-03T08:02:59;20.94;82.10
66337;SHT30;53139;45.576;5.304;2022-09-03T08:06:06;21.05;85.12
66337;SHT30;53139;45.576;5.304;2022-09-03T08:09:10;21.25;83.29
66337;SHT30;53139;45.576;5.304;2022-09-03T08:12:14;21.32;84.60
66337;SHT30;53139;45.576;5.304;2022-09-03T08:15:15;21.82;81.88
66337;SHT30;53139;45.576;5.304;2022-09-03T08:18:16;22.18;78.79
66337;SHT30;53139;45.576;5.304;2022-09-03T08:21:19;22.02;79.21
66337;SHT30;53139;45.576;5.304;2022-09-03T08:24:19;22.25;81.06
66337;SHT30;53139;45.576;5.304;2022-09-03T08:27:23;22.56;80.06
66337;SHT30;53139;45.576;5.304;2022-09-03T08:30:27;22.83;77.26
66337;SHT30;53139;45.576;5.304;2022-09-03T08:33:29;23.15;75.05
66337;SHT30;53139;45.576;5.304;2022-09-03T08:36:38;23.66;75.80
66337;SHT30;53139;45.576;5.304;2022-09-03T08:39:43;23.80;72.40
66337;SHT30;53139;45.576;5.304;2022-09-03T08:42:57;24.20;74.07
66337;SHT30;53139;45.576;5.304;2022-09-03T08:46:05;24.07;67.23
66337;SHT30;53139;45.576;5.304;2022-09-03T08:49:10;24.28;67.20
66337;SHT30;53139;45.576;5.304;2022-09-03T08:55:50;23.70;66.57
66337;SHT30;53139;45.576;5.304;2022-09-03T08:58:54;24.13;65.82
66337;SHT30;53139;45.576;5.304;2022-09-03T09:02:09;24.45;63.33
66337;SHT30;53139;45.576;5.304;2022-09-03T09:05:23;24.92;64.77
66337;SHT30;53139;45.576;5.304;2022-09-03T09:08:38;24.16;64.72
66337;SHT30;53139;45.576;5.304;2022-09-03T09:12:03;24.06;67.86
66337;SHT30;53139;45.576;5.304;2022-09-03T09:21:43;25.58;61.79
66337;SHT30;53139;45.576;5.304;2022-09-03T09:24:51;25.93;62.95
66337;SHT30;53139;45.576;5.304;2022-09-03T09:28:02;26.36;61.43
66337;SHT30;53139;45.576;5.304;2022-09-03T09:31:07;25.68;61.47
66337;SHT30;53139;45.576;5.304;2022-09-03T09:34:11;25.99;61.74
66337;SHT30;53139;45.576;5.304;2022-09-03T09:37:14;26.14;60.99
66337;SHT30;53139;45.576;5.304;2022-09-03T09:40:31;25.96;60.42
66337;SHT30;53139;45.576;5.304;2022-09-03T09:43:34;26.58;61.02
66337;SHT30;53139;45.576;5.304;2022-09-03T09:46:38;27.46;59.61
66337;SHT30;53139;45.576;5.304;2022-09-03T09:49:51;26.64;58.36
66337;SHT30;53139;45.576;5.304;2022-09-03T09:53:07;26.98;56.06
66337;SHT30;53139;45.576;5.304;2022-09-03T09:56:20;26.48;55.32
66337;SHT30;53139;45.576;5.304;2022-09-03T09:59:24;27.09;55.51
66337;SHT30;53139;45.576;5.304;2022-09-03T10:02:27;25.89;58.46
66337;SHT30;53139;45.576;5.304;2022-09-03T10:05:30;26.12;56.95
66337;SHT30;53139;45.576;5.304;2022-09-03T10:08:37;26.38;57.75
66337;SHT30;53139;45.576;5.304;2022-09-03T10:11:42;28.17;54.82
66337;SHT30;53139;45.576;5.304;2022-09-03T10:14:50;27.61;53.79
66337;SHT30;53139;45.576;5.304;2022-09-03T10:21:57;26.83;55.91
66337;SHT30;53139;45.576;5.304;2022-09-03T10:25:05;28.23;55.95
66337;SHT30;53139;45.576;5.304;2022-09-03T10:28:09;28.16;55.08
66337;SHT30;53139;45.576;5.304;2022-09-03T10:35:42;26.38;58.99
66337;SHT30;53139;45.576;5.304;2022-09-03T10:38:32;27.66;53.73
66337;SHT30;53139;45.576;5.304;2022-09-03T10:52:12;28.55;50.81
66337;SHT30;53139;45.576;5.304;2022-09-03T10:56:00;30.01;49.48
66337;SHT30;53139;45.576;5.304;2022-09-03T10:59:29;29.30;49.54
66337;SHT30;53139;45.576;5.304;2022-09-03T11:06:01;28.88;51.71
66337;SHT30;53139;45.576;5.304;2022-09-03T11:09:16;29.86;48.92
66337;SHT30;53139;45.576;5.304;2022-09-03T11:12:29;30.47;46.01
66337;SHT30;53139;45.576;5.304;2022-09-03T11:15:36;30.71;46.17
66337;SHT30;53139;45.576;5.304;2022-09-03T11:18:48;29.49;45.86
66337;SHT30;53139;45.576;5.304;2022-09-03T11:21:53;29.77;46.92
66337;SHT30;53139;45.576;5.304;2022-09-03T11:24:58;29.54;48.33
66337;SHT30;53139;45.576;5.304;2022-09-03T11:28:14;31.36;45.44
66337;SHT30;53139;45.576;5.304;2022-09-03T11:34:32;28.90;46.91
66337;SHT30;53139;45.576;5.304;2022-09-03T11:37:48;29.23;46.80
66337;SHT30;53139;45.576;5.304;2022-09-03T11:41:14;29.43;49.24
66337;SHT30;53139;45.576;5.304;2022-09-03T11:44:23;29.25;46.81
66337;SHT30;53139;45.576;5.304;2022-09-03T11:47:38;29.12;45.07
66337;SHT30;53139;45.576;5.304;2022-09-03T11:50:51;29.61;45.17
66337;SHT30;53139;45.576;5.304;2022-09-03T11:57:22;29.81;47.66
66337;SHT30;53139;45.576;5.304;2022-09-03T12:00:27;31.01;46.35
66337;SHT30;53139;45.576;5.304;2022-09-03T12:03:50;29.57;44.65
66337;SHT30;53139;45.576;5.304;2022-09-03T12:10:33;28.24;50.09
66337;SHT30;53139;45.576;5.304;2022-09-03T12:20:33;30.74;49.16
66337;SHT30;53139;45.576;5.304;2022-09-03T12:23:43;31.42;45.58
66337;SHT30;53139;45.576;5.304;2022-09-03T12:26:47;29.89;46.01
66337;SHT30;53139;45.576;5.304;2022-09-03T12:30:02;29.33;49.82
66337;SHT30;53139;45.576;5.304;2022-09-03T12:33:06;28.23;50.42
66337;SHT30;53139;45.576;5.304;2022-09-03T12:36:08;29.18;48.47
66337;SHT30;53139;45.576;5.304;2022-09-03T12:39:19;29.12;50.52
66337;SHT30;53139;45.576;5.304;2022-09-03T12:42:25;28.54;49.14
66337;SHT30;53139;45.576;5.304;2022-09-03T12:45:28;27.88;52.42
66337;SHT30;53139;45.576;5.304;2022-09-03T12:48:31;28.46;51.53
66337;SHT30;53139;45.576;5.304;2022-09-03T12:51:36;27.95;51.94
66337;SHT30;53139;45.576;5.304;2022-09-03T12:58:30;28.21;51.34
66337;SHT30;53139;45.576;5.304;2022-09-03T13:01:46;27.53;52.05
66337;SHT30;53139;45.576;5.304;2022-09-03T13:04:50;27.65;50.83
66337;SHT30;53139;45.576;5.304;2022-09-03T13:07:57;27.51;52.49
66337;SHT30;53139;45.576;5.304;2022-09-03T13:11:02;27.58;53.14
66337;SHT30;53139;45.576;5.304;2022-09-03T13:14:08;26.89;53.83
66337;SHT30;53139;45.576;5.304;2022-09-03T13:17:29;26.71;53.39
66337;SHT30;53139;45.576;5.304;2022-09-03T13:27:41;27.03;54.19
66337;SHT30;53139;45.576;5.304;2022-09-03T13:34:19;27.95;52.99
66337;SHT30;53139;45.576;5.304;2022-09-03T13:37:38;27.99;52.49
66337;SHT30;53139;45.576;5.304;2022-09-03T13:44:17;26.65;52.56
66337;SHT30;53139;45.576;5.304;2022-09-03T13:50:47;28.63;48.86
66337;SHT30;53139;45.576;5.304;2022-09-03T13:53:58;29.33;46.68
66337;SHT30;53139;45.576;5.304;2022-09-03T14:00:53;28.94;47.16
66337;SHT30;53139;45.576;5.304;2022-09-03T14:04:57;30.50;45.44
66337;SHT30;53139;45.576;5.304;2022-09-03T14:20:48;30.15;45.02
66337;SHT30;53139;45.576;5.304;2022-09-03T14:27:32;28.95;48.95
66337;SHT30;53139;45.576;5.304;2022-09-03T14:31:10;29.29;47.47
66337;SHT30;53139;45.576;5.304;2022-09-03T14:34:42;28.57;48.78
66337;SHT30;53139;45.576;5.304;2022-09-03T14:51:41;27.89;48.90
66337;SHT30;53139;45.576;5.304;2022-09-03T15:01:54;27.71;51.90
66337;SHT30;53139;45.576;5.304;2022-09-03T15:15:00;28.50;48.49
66337;SHT30;53139;45.576;5.304;2022-09-03T15:25:14;31.09;45.42
66337;SHT30;53139;45.576;5.304;2022-09-03T15:31:49;29.36;45.33
66337;SHT30;53139;45.576;5.304;2022-09-03T15:38:09;28.27;49.56
66337;SHT30;53139;45.576;5.304;2022-09-03T15:44:44;27.82;49.98
66337;SHT30;53139;45.576;5.304;2022-09-03T15:47:53;26.43;52.62
66337;SHT30;53139;45.576;5.304;2022-09-03T15:54:37;27.14;53.67
66337;SHT30;53139;45.576;5.304;2022-09-03T15:57:52;26.57;53.90
66337;SHT30;53139;45.576;5.304;2022-09-03T16:01:21;26.58;53.33
66337;SHT30;53139;45.576;5.304;2022-09-03T16:11:16;25.39;55.15
66337;SHT30;53139;45.576;5.304;2022-09-03T16:14:34;25.26;55.52
66337;SHT30;53139;45.576;5.304;2022-09-03T16:18:00;25.19;55.94
66337;SHT30;53139;45.576;5.304;2022-09-03T16:22:07;25.47;55.29
66337;SHT30;53139;45.576;5.304;2022-09-03T16:24:54;25.21;55.06
66337;SHT30;53139;45.576;5.304;2022-09-03T16:28:15;25.09;56.83
66337;SHT30;53139;45.576;5.304;2022-09-03T16:48:05;24.41;58.10
66337;SHT30;53139;45.576;5.304;2022-09-03T16:57:27;24.49;58.02
66337;SHT30;53139;45.576;5.304;2022-09-03T17:07:52;24.00;58.76
66337;SHT30;53139;45.576;5.304;2022-09-03T17:21:42;23.49;57.45
66337;SHT30;53139;45.576;5.304;2022-09-03T17:24:52;23.29;58.63
66337;SHT30;53139;45.576;5.304;2022-09-03T17:41:45;23.18;62.35
66337;SHT30;53139;45.576;5.304;2022-09-03T17:45:13;22.93;62.39
66337;SHT30;53139;45.576;5.304;2022-09-03T17:48:51;22.66;61.93
66337;SHT30;53139;45.576;5.304;2022-09-03T17:52:02;22.59;63.04
66337;SHT30;53139;45.576;5.304;2022-09-03T17:55:35;22.42;64.47
66337;SHT30;53139;45.576;5.304;2022-09-03T18:02:26;22.63;65.08
66337;SHT30;53139;45.576;5.304;2022-09-03T18:05:45;22.62;65.20
66337;SHT30;53139;45.576;5.304;2022-09-03T18:08:59;22.55;66.57
66337;SHT30;53139;45.576;5.304;2022-09-03T18:12:10;22.48;67.04
66337;SHT30;53139;45.576;5.304;2022-09-03T18:15:20;22.32;66.85
66337;SHT30;53139;45.576;5.304;2022-09-03T18:18:27;22.32;66.22
66337;SHT30;53139;45.576;5.304;2022-09-03T18:21:35;22.12;70.35
66337;SHT30;53139;45.576;5.304;2022-09-03T18:24:59;22.17;67.39
66337;SHT30;53139;45.576;5.304;2022-09-03T18:28:30;22.02;67.79
66337;SHT30;53139;45.576;5.304;2022-09-03T18:31:54;21.91;68.27
66337;SHT30;53139;45.576;5.304;2022-09-03T18:35:15;21.84;68.61
66337;SHT30;53139;45.576;5.304;2022-09-03T18:38:37;21.48;70.90
66337;SHT30;53139;45.576;5.304;2022-09-03T18:45:57;21.29;70.28
66337;SHT30;53139;45.576;5.304;2022-09-03T18:49:34;20.80;72.67
66337;SHT30;53139;45.576;5.304;2022-09-03T18:53:17;20.69;73.08
66337;SHT30;53139;45.576;5.304;2022-09-03T18:56:47;20.69;72.86
66337;SHT30;53139;45.576;5.304;2022-09-03T19:00:11;20.83;72.33
66337;SHT30;53139;45.576;5.304;2022-09-03T19:03:47;20.81;73.62
66337;SHT30;53139;45.576;5.304;2022-09-03T19:07:25;20.69;74.11
66337;SHT30;53139;45.576;5.304;2022-09-03T19:11:27;20.64;74.60
66337;SHT30;53139;45.576;5.304;2022-09-03T19:15:01;20.67;74.92
66337;SHT30;53139;45.576;5.304;2022-09-03T19:22:37;20.93;73.38
66337;SHT30;53139;45.576;5.304;2022-09-03T19:26:10;20.93;73.83
66337;SHT30;53139;45.576;5.304;2022-09-03T19:30:02;20.88;74.42
66337;SHT30;53139;45.576;5.304;2022-09-03T19:37:17;21.19;72.43
66337;SHT30;53139;45.576;5.304;2022-09-03T19:40:56;21.28;72.57
66337;SHT30;53139;45.576;5.304;2022-09-03T19:52:13;20.38;82.60
66337;SHT30;53139;45.576;5.304;2022-09-03T19:55:43;20.45;83.04
66337;SHT30;53139;45.576;5.304;2022-09-03T19:59:11;20.25;83.11
66337;SHT30;53139;45.576;5.304;2022-09-03T20:02:33;19.71;86.15
66337;SHT30;53139;45.576;5.304;2022-09-03T20:05:55;20.05;84.75
66337;SHT30;53139;45.576;5.304;2022-09-03T20:09:17;19.74;84.71
66337;SHT30;53139;45.576;5.304;2022-09-03T20:12:46;19.91;84.35
66337;SHT30;53139;45.576;5.304;2022-09-03T20:22:44;19.77;84.49
66337;SHT30;53139;45.576;5.304;2022-09-03T20:26:13;19.53;86.05
66337;SHT30;53139;45.576;5.304;2022-09-03T20:35:52;19.74;84.97
66337;SHT30;53139;45.576;5.304;2022-09-03T20:52:16;19.60;85.67
66337;SHT30;53139;45.576;5.304;2022-09-03T20:55:28;19.35;87.55
66337;SHT30;53139;45.576;5.304;2022-09-03T20:58:43;19.63;84.91
66337;SHT30;53139;45.576;5.304;2022-09-03T21:02:17;19.66;84.89
66337;SHT30;53139;45.576;5.304;2022-09-03T21:05:40;19.62;85.07
66337;SHT30;53139;45.576;5.304;2022-09-03T21:15:34;19.29;86.77
66337;SHT30;53139;45.576;5.304;2022-09-03T21:29:10;19.52;84.71
66337;SHT30;53139;45.576;5.304;2022-09-03T21:32:20;19.30;88.43
66337;SHT30;53139;45.576;5.304;2022-09-03T21:35:32;19.47;86.03
66337;SHT30;53139;45.576;5.304;2022-09-03T21:38:36;19.43;86.45
66337;SHT30;53139;45.576;5.304;2022-09-03T21:41:44;19.53;86.13
66337;SHT30;53139;45.576;5.304;2022-09-03T21:48:10;19.63;86.26
66337;SHT30;53139;45.576;5.304;2022-09-03T21:51:32;19.60;85.46
66337;SHT30;53139;45.576;5.304;2022-09-03T21:54:38;19.16;87.77
66337;SHT30;53139;45.576;5.304;2022-09-03T21:58:20;19.42;84.89
66337;SHT30;53139;45.576;5.304;2022-09-03T22:01:26;19.38;85.66
66337;SHT30;53139;45.576;5.304;2022-09-03T22:04:33;19.07;88.63
66337;SHT30;53139;45.576;5.304;2022-09-03T22:08:38;19.01;88.89
66337;SHT30;53139;45.576;5.304;2022-09-03T22:11:31;19.35;86.59
66337;SHT30;53139;45.576;5.304;2022-09-03T22:14:47;19.04;87.63
66337;SHT30;53139;45.576;5.304;2022-09-03T22:18:00;19.14;85.16
66337;SHT30;53139;45.576;5.304;2022-09-03T22:21:20;18.97;85.64
66337;SHT30;53139;45.576;5.304;2022-09-03T22:27:49;18.90;84.87
66337;SHT30;53139;45.576;5.304;2022-09-03T22:34:29;18.77;83.72
66337;SHT30;53139;45.576;5.304;2022-09-03T22:40:51;18.59;83.66
66337;SHT30;53139;45.576;5.304;2022-09-03T22:50:57;18.73;84.77
66337;SHT30;53139;45.576;5.304;2022-09-03T22:54:22;18.75;84.29
66337;SHT30;53139;45.576;5.304;2022-09-03T22:57:32;18.78;84.13
66337;SHT30;53139;45.576;5.304;2022-09-03T23:00:44;18.61;86.30
66337;SHT30;53139;45.576;5.304;2022-09-03T23:03:54;18.46;85.37
66337;SHT30;53139;45.576;5.304;2022-09-03T23:07:21;18.39;85.27
66337;SHT30;53139;45.576;5.304;2022-09-03T23:10:33;18.25;85.22
66337;SHT30;53139;45.576;5.304;2022-09-03T23:13:44;17.84;88.09
66337;SHT30;53139;45.576;5.304;2022-09-03T23:16:55;18.19;85.52
66337;SHT30;53139;45.576;5.304;2022-09-03T23:20:13;18.28;84.06
66337;SHT30;53139;45.576;5.304;2022-09-03T23:23:21;18.16;86.00
66337;SHT30;53139;45.576;5.304;2022-09-03T23:26:43;18.12;85.57
66337;SHT30;53139;45.576;5.304;2022-09-03T23:29:50;18.12;85.93
66337;SHT30;53139;45.576;5.304;2022-09-03T23:32:56;18.06;85.92
66337;SHT30;53139;45.576;5.304;2022-09-03T23:36:10;17.95;86.70
66337;SHT30;53139;45.576;5.304;2022-09-03T23:52:31;17.73;86.46
